createdAt,value
2022-12-08T00:02:06.667Z,3.99
2022-12-08T00:04:54.942Z,3.93
2022-12-08T00:07:40.540Z,3.89
2022-12-08T00:10:46.501Z,3.90
2022-12-08T00:13:00.295Z,3.92
2022-12-08T00:15:29.832Z,3.89
2022-12-08T00:17:58.051Z,3.86
2022-12-08T00:20:26.288Z,3.80
2022-12-08T00:22:54.774Z,3.76
2022-12-08T00:25:27.709Z,3.64
2022-12-08T00:27:56.029Z,3.56
2022-12-08T00:30:24.342Z,3.52
2022-12-08T00:32:54.098Z,3.46
2022-12-08T00:35:22.542Z,3.33
2022-12-08T00:37:50.792Z,3.34
2022-12-08T00:40:19.098Z,3.23
2022-12-08T00:42:47.318Z,3.36
2022-12-08T00:45:15.702Z,3.32
2022-12-08T00:47:43.986Z,3.33
2022-12-08T00:50:13.850Z,3.32
2022-12-08T00:52:42.196Z,3.29
2022-12-08T00:55:10.734Z,3.28
2022-12-08T00:57:38.896Z,3.26
2022-12-08T01:00:08.679Z,3.13
2022-12-08T01:02:36.944Z,3.10
2022-12-08T01:05:05.881Z,3.05
2022-12-08T01:07:35.593Z,2.99
2022-12-08T01:10:05.191Z,2.89
2022-12-08T01:12:33.694Z,2.90
2022-12-08T01:15:02.736Z,2.88
2022-12-08T01:17:32.315Z,2.87
2022-12-08T01:20:02.545Z,2.94
2022-12-08T01:22:31.128Z,3.02
2022-12-08T01:25:00.854Z,2.91
2022-12-08T01:27:29.256Z,2.88
2022-12-08T01:29:57.524Z,2.83
2022-12-08T01:32:25.898Z,2.74
2022-12-08T01:34:54.144Z,2.68
2022-12-08T01:37:22.375Z,2.59
2022-12-08T01:39:50.626Z,2.55
2022-12-08T01:42:24.231Z,2.58
2022-12-08T01:45:01.416Z,2.58
2022-12-08T01:47:37.429Z,2.55
2022-12-08T01:50:09.551Z,2.51
2022-12-08T01:52:41.908Z,2.50
2022-12-08T01:55:19.080Z,2.39
2022-12-08T01:57:51.957Z,2.39
2022-12-08T02:00:22.751Z,2.40
2022-12-08T02:02:59.615Z,2.36
2022-12-08T02:05:33.150Z,2.38
2022-12-08T02:08:04.483Z,2.35
2022-12-08T02:10:36.626Z,2.20
2022-12-08T02:13:10.549Z,2.22
2022-12-08T02:15:50.391Z,2.24
2022-12-08T02:18:37.302Z,2.17
2022-12-08T02:21:12.520Z,2.11
2022-12-08T02:23:52.805Z,2.15
2022-12-08T02:27:00.428Z,2.24
2022-12-08T02:29:50.664Z,2.21
2022-12-08T02:32:43.435Z,2.27
2022-12-08T02:35:15.652Z,2.32
2022-12-08T02:37:57.513Z,2.40
2022-12-08T02:40:30.857Z,2.42
2022-12-08T02:43:04.110Z,2.46
2022-12-08T02:45:35.996Z,2.54
2022-12-08T02:48:06.019Z,2.55
2022-12-08T02:50:35.730Z,2.60
2022-12-08T02:55:41.594Z,2.71
2022-12-08T02:58:49.610Z,2.75
2022-12-08T03:01:33.401Z,2.85
2022-12-08T03:04:07.412Z,2.89
2022-12-08T03:06:46.606Z,2.91
2022-12-08T03:09:22.832Z,2.95
2022-12-08T03:11:57.820Z,3.05
2022-12-08T03:14:27.090Z,3.13
2022-12-08T03:17:00.703Z,3.12
2022-12-08T03:19:33.909Z,3.14
2022-12-08T03:22:06.020Z,3.15
2022-12-08T03:24:37.825Z,3.19
2022-12-08T03:27:09.211Z,3.25
2022-12-08T03:29:39.110Z,3.26
2022-12-08T03:32:16.476Z,3.27
2022-12-08T03:34:48.235Z,3.28
2022-12-08T03:37:22.110Z,3.27
2022-12-08T03:39:52.776Z,3.27
2022-12-08T03:42:23.743Z,3.24
2022-12-08T03:44:52.103Z,3.23
2022-12-08T03:47:20.364Z,3.18
2022-12-08T03:49:48.697Z,3.21
2022-12-08T03:52:17.048Z,3.18
2022-12-08T03:54:46.860Z,3.17
2022-12-08T03:57:15.579Z,3.16
2022-12-08T03:59:43.957Z,3.17
2022-12-08T04:02:12.350Z,3.20
2022-12-08T04:04:40.783Z,3.24
2022-12-08T04:07:09.035Z,3.29
2022-12-08T04:09:37.275Z,3.29
2022-12-08T04:12:07.440Z,3.29
2022-12-08T04:14:35.698Z,3.29
2022-12-08T04:17:04.203Z,3.31
2022-12-08T04:19:32.424Z,3.29
2022-12-08T04:22:00.656Z,3.34
2022-12-08T04:24:29.186Z,3.27
2022-12-08T04:26:57.480Z,3.28
2022-12-08T04:29:27.117Z,3.24
2022-12-08T04:31:55.417Z,3.27
2022-12-08T04:34:23.897Z,3.24
2022-12-08T04:36:52.131Z,3.25
2022-12-08T04:39:20.381Z,3.25
2022-12-08T04:41:48.662Z,3.24
2022-12-08T04:44:16.865Z,3.26
2022-12-08T04:46:47.548Z,3.19
2022-12-08T04:49:15.766Z,3.18
2022-12-08T04:51:44.141Z,3.19
2022-12-08T04:54:12.442Z,3.21
2022-12-08T04:56:40.807Z,3.16
2022-12-08T04:59:09.473Z,3.16
2022-12-08T05:01:37.830Z,3.14
2022-12-08T05:04:07.568Z,3.06
2022-12-08T05:06:35.882Z,3.04
2022-12-08T05:09:04.142Z,3.03
2022-12-08T05:11:32.518Z,3.03
2022-12-08T05:14:00.834Z,2.96
2022-12-08T05:16:29.251Z,2.94
2022-12-08T05:18:57.662Z,2.98
2022-12-08T05:21:27.365Z,2.93
2022-12-08T05:23:55.728Z,2.94
2022-12-08T05:26:24.028Z,2.93
2022-12-08T05:28:52.421Z,2.95
2022-12-08T05:31:20.825Z,2.91
2022-12-08T05:33:51.000Z,2.88
2022-12-08T05:36:19.790Z,2.90
2022-12-08T05:38:49.465Z,2.89
2022-12-08T05:41:19.739Z,2.90
2022-12-08T05:43:48.682Z,2.87
2022-12-08T05:46:18.121Z,2.86
2022-12-08T05:48:46.613Z,2.82
2022-12-08T05:51:19.778Z,2.84
2022-12-08T05:53:51.001Z,2.81
2022-12-08T05:56:20.362Z,2.85
2022-12-08T05:58:49.236Z,2.81
2022-12-08T06:01:22.651Z,2.86
2022-12-08T06:03:51.212Z,2.83
2022-12-08T06:06:19.840Z,2.78
2022-12-08T06:08:49.645Z,2.80
2022-12-08T06:11:22.689Z,2.74
2022-12-08T06:13:51.700Z,2.74
2022-12-08T06:16:20.540Z,2.73
2022-12-08T06:18:48.961Z,2.74
2022-12-08T06:21:18.264Z,2.74
2022-12-08T06:23:51.037Z,2.80
2022-12-08T06:26:19.588Z,2.75
2022-12-08T06:28:48.217Z,2.79
2022-12-08T06:31:19.493Z,2.85
2022-12-08T06:33:48.307Z,2.83
2022-12-08T06:36:18.319Z,2.82
2022-12-08T06:38:46.990Z,2.80
2022-12-08T06:41:16.938Z,2.80
2022-12-08T06:43:48.800Z,2.76
2022-12-08T06:46:20.947Z,2.74
2022-12-08T06:48:50.756Z,2.78
2022-12-08T06:51:21.019Z,2.75
2022-12-08T06:53:49.416Z,2.78
2022-12-08T06:56:20.559Z,2.80
2022-12-08T06:58:52.400Z,2.81
2022-12-08T07:01:21.488Z,2.84
2022-12-08T07:03:49.975Z,2.91
2022-12-08T07:06:21.962Z,2.91
2022-12-08T07:08:50.157Z,2.88
2022-12-08T07:11:22.284Z,2.88
2022-12-08T07:13:51.573Z,2.86
2022-12-08T07:16:20.031Z,2.90
2022-12-08T07:18:48.302Z,2.89
2022-12-08T07:21:17.565Z,2.91
2022-12-08T07:23:50.217Z,2.91
2022-12-08T07:26:23.725Z,2.93
2022-12-08T07:28:51.974Z,2.90
2022-12-08T07:31:22.164Z,2.93
2022-12-08T07:33:50.762Z,2.86
2022-12-08T07:36:19.023Z,2.88
2022-12-08T07:38:47.774Z,2.85
2022-12-08T07:41:16.829Z,2.85
2022-12-08T07:43:46.794Z,2.86
2022-12-08T07:46:16.297Z,2.86
2022-12-08T07:48:46.646Z,2.89
2022-12-08T07:51:18.999Z,2.85
2022-12-08T07:53:53.782Z,2.86
2022-12-08T07:56:23.589Z,2.85
2022-12-08T07:58:53.218Z,2.82
2022-12-08T08:01:27.032Z,2.88
2022-12-08T08:03:57.339Z,2.86
2022-12-08T08:06:25.829Z,2.89
2022-12-08T08:08:54.158Z,2.94
2022-12-08T08:11:22.922Z,2.91
2022-12-08T08:13:52.935Z,2.93
2022-12-08T08:16:21.897Z,2.97
2022-12-08T08:18:52.791Z,2.99
2022-12-08T08:21:44.905Z,2.97
2022-12-08T08:24:10.554Z,3.00
2022-12-08T08:26:39.232Z,3.00
2022-12-08T08:29:09.103Z,2.96
2022-12-08T08:31:37.343Z,3.01
2022-12-08T08:34:06.494Z,3.01
2022-12-08T08:36:34.937Z,3.02
2022-12-08T08:39:03.428Z,3.00
2022-12-08T08:41:32.116Z,2.98
2022-12-08T08:44:00.458Z,2.96
2022-12-08T08:46:30.232Z,2.94
2022-12-08T08:48:58.872Z,2.96
2022-12-08T08:51:27.248Z,2.89
2022-12-08T08:53:55.572Z,2.86
2022-12-08T08:56:24.277Z,2.82
2022-12-08T08:58:54.441Z,2.78
2022-12-08T09:01:24.858Z,2.72
2022-12-08T09:03:55.259Z,2.69
2022-12-08T09:06:25.416Z,2.69
2022-12-08T09:08:53.695Z,2.65
2022-12-08T09:11:23.477Z,2.59
2022-12-08T09:13:54.579Z,2.64
2022-12-08T09:16:23.502Z,2.65
2022-12-08T09:18:52.332Z,2.76
2022-12-08T09:21:25.867Z,2.89
2022-12-08T09:23:57.202Z,2.99
2022-12-08T09:26:26.595Z,3.11
2022-12-08T09:28:56.102Z,3.17
2022-12-08T09:31:25.423Z,3.23
2022-12-08T09:33:53.817Z,3.25
2022-12-08T09:36:23.903Z,3.24
2022-12-08T09:38:53.813Z,3.39
2022-12-08T09:41:37.483Z,3.70
2022-12-08T09:44:57.347Z,4.06
2022-12-08T09:47:35.249Z,4.36
2022-12-08T09:50:08.436Z,4.61
2022-12-08T09:52:43.166Z,4.82
2022-12-08T09:55:20.991Z,4.86
2022-12-08T09:58:01.782Z,4.96
2022-12-08T10:00:33.910Z,4.77
2022-12-08T10:03:02.261Z,4.68
2022-12-08T10:05:41.099Z,4.96
2022-12-08T10:08:20.048Z,4.95
2022-12-08T10:10:57.978Z,5.01
2022-12-08T10:13:34.493Z,5.12
2022-12-08T10:16:21.152Z,5.17
2022-12-08T10:18:57.711Z,5.20
2022-12-08T10:21:30.033Z,5.19
2022-12-08T10:24:06.582Z,5.40
2022-12-08T10:26:35.668Z,5.61
2022-12-08T10:29:16.859Z,5.56
2022-12-08T10:31:50.159Z,5.33
2022-12-08T10:34:25.352Z,5.61
2022-12-08T10:36:56.128Z,5.45
2022-12-08T10:39:37.394Z,5.64
2022-12-08T10:42:18.903Z,5.50
2022-12-08T10:44:59.408Z,5.56
2022-12-08T10:47:29.676Z,5.62
2022-12-08T10:50:19.276Z,5.70
2022-12-08T10:52:54.988Z,5.70
2022-12-08T10:55:25.218Z,5.54
2022-12-08T10:57:53.753Z,5.33
2022-12-08T11:00:25.123Z,5.36
2022-12-08T11:02:57.328Z,5.31
2022-12-08T11:05:29.625Z,5.09
2022-12-08T11:07:58.995Z,5.09
2022-12-08T11:10:38.419Z,4.96
2022-12-08T11:13:14.409Z,5.00
2022-12-08T11:15:42.820Z,4.94
2022-12-08T11:18:23.774Z,4.79
2022-12-08T11:21:00.415Z,4.86
2022-12-08T11:23:30.493Z,4.74
2022-12-08T11:26:08.526Z,4.69
2022-12-08T11:28:37.304Z,4.56
2022-12-08T11:31:21.861Z,4.59
2022-12-08T11:33:52.370Z,4.94
2022-12-08T11:36:23.387Z,5.15
2022-12-08T11:38:54.886Z,5.56
2022-12-08T11:41:29.856Z,5.69
2022-12-08T11:44:04.983Z,5.80
2022-12-08T11:46:37.821Z,5.90
2022-12-08T11:49:11.909Z,6.10
2022-12-08T11:51:45.066Z,6.07
2022-12-08T11:54:20.376Z,6.15
2022-12-08T11:56:52.701Z,5.97
2022-12-08T11:59:28.806Z,6.00
2022-12-08T12:01:58.564Z,5.89
2022-12-08T12:04:34.489Z,5.78
2022-12-08T12:07:28.888Z,5.62
2022-12-08T12:10:18.667Z,5.53
2022-12-08T12:13:00.533Z,5.47
2022-12-08T12:16:05.648Z,5.33
2022-12-08T12:18:40.296Z,4.89
2022-12-08T12:21:16.469Z,4.46
2022-12-08T12:23:48.682Z,3.93
2022-12-08T12:26:22.542Z,3.70
2022-12-08T12:28:56.479Z,3.64
2022-12-08T12:31:27.783Z,3.44
2022-12-08T12:34:06.512Z,3.11
2022-12-08T12:36:50.408Z,2.87
2022-12-08T12:39:22.439Z,2.91
2022-12-08T12:41:55.064Z,2.71
2022-12-08T12:44:40.903Z,2.67
2022-12-08T12:47:35.671Z,2.68
2022-12-08T12:50:09.471Z,2.68
2022-12-08T12:52:46.080Z,2.72
2022-12-08T12:55:55.901Z,2.72
2022-12-08T12:58:38.011Z,2.76
2022-12-08T13:01:44.477Z,2.81
2022-12-08T13:04:14.393Z,2.81
2022-12-08T13:06:45.591Z,2.88
2022-12-08T13:09:25.075Z,2.83
2022-12-08T13:11:58.696Z,2.83
2022-12-08T13:14:36.251Z,2.87
2022-12-08T13:17:11.037Z,2.82
2022-12-08T13:19:41.968Z,2.89
2022-12-08T13:22:49.260Z,3.08
2022-12-08T13:25:49.851Z,3.06
2022-12-08T13:28:22.051Z,3.08
2022-12-08T13:30:51.228Z,3.13
2022-12-08T13:33:24.576Z,3.06
2022-12-08T13:36:03.218Z,3.13
2022-12-08T13:38:35.589Z,3.21
2022-12-08T13:41:10.221Z,3.21
2022-12-08T13:44:10.232Z,3.21
2022-12-08T13:50:55.697Z,3.24
2022-12-08T13:56:51.341Z,3.13
2022-12-08T13:58:21.798Z,3.09
2022-12-08T14:01:07.172Z,3.14
2022-12-08T14:04:30.600Z,3.15
2022-12-08T14:06:46.089Z,3.28
2022-12-08T14:09:21.202Z,3.31
2022-12-08T14:11:54.001Z,3.31
2022-12-08T14:15:00.594Z,3.34
2022-12-08T14:17:18.910Z,3.35
2022-12-08T14:19:55.758Z,3.45
2022-12-08T14:22:24.786Z,3.43
2022-12-08T14:24:55.861Z,3.36
2022-12-08T14:27:26.752Z,3.33
2022-12-08T14:29:57.211Z,3.45
2022-12-08T14:32:30.209Z,3.45
2022-12-08T14:35:02.402Z,3.41
2022-12-08T14:37:34.296Z,3.34
2022-12-08T14:40:08.604Z,3.31
2022-12-08T14:42:45.538Z,3.33
2022-12-08T14:45:16.439Z,3.33
2022-12-08T14:47:45.747Z,3.34
2022-12-08T14:50:40.777Z,3.29
2022-12-08T14:53:17.610Z,3.26
2022-12-08T14:55:49.057Z,3.26
2022-12-08T14:58:22.115Z,3.31
2022-12-08T15:00:58.421Z,3.21
2022-12-08T15:03:30.141Z,3.19
2022-12-08T15:06:02.420Z,3.18
2022-12-08T15:08:32.287Z,3.16
2022-12-08T15:11:31.653Z,3.05
2022-12-08T15:14:00.147Z,3.02
2022-12-08T15:16:32.572Z,3.00
2022-12-08T15:19:16.739Z,2.97
2022-12-08T15:21:53.231Z,3.00
2022-12-08T15:24:24.878Z,2.98
2022-12-08T15:26:55.210Z,2.96
2022-12-08T15:29:25.123Z,2.93
2022-12-08T15:31:55.652Z,2.96
2022-12-08T15:34:24.259Z,2.89
2022-12-08T15:36:54.370Z,2.84
2022-12-08T15:39:31.204Z,2.82
2022-12-08T15:42:02.349Z,2.79
2022-12-08T15:44:32.850Z,2.74
2022-12-08T15:47:01.820Z,2.72
2022-12-08T15:49:30.329Z,2.64
2022-12-08T15:52:10.578Z,2.66
2022-12-08T15:54:40.864Z,2.47
2022-12-08T15:57:35.910Z,2.54
2022-12-08T16:04:08.891Z,2.45
2022-12-08T16:09:12.173Z,2.30
2022-12-08T16:12:08.138Z,2.23
2022-12-08T16:17:28.719Z,2.10
2022-12-08T16:19:57.081Z,2.01
2022-12-08T16:22:54.143Z,1.97
2022-12-08T16:25:20.220Z,1.90
2022-12-08T16:30:40.007Z,1.87
2022-12-08T16:33:08.426Z,1.87
2022-12-08T16:35:36.736Z,1.83
2022-12-08T16:38:05.428Z,1.82
2022-12-08T16:40:53.910Z,1.84
2022-12-08T16:43:21.223Z,1.77
2022-12-08T16:45:51.048Z,1.75
2022-12-08T16:48:25.020Z,1.65
2022-12-08T16:53:49.937Z,1.62
2022-12-08T16:56:19.146Z,1.65
2022-12-08T16:58:47.895Z,1.69
2022-12-08T17:01:19.905Z,1.70
2022-12-08T17:04:14.319Z,1.69
2022-12-08T17:06:37.441Z,1.62
2022-12-08T17:09:07.511Z,1.62
2022-12-08T17:11:42.624Z,1.57
2022-12-08T17:14:12.413Z,1.55
2022-12-08T17:16:42.428Z,1.53
2022-12-08T17:19:11.263Z,1.52
2022-12-08T17:21:39.729Z,1.49
2022-12-08T17:24:08.464Z,1.54
2022-12-08T17:26:37.139Z,1.54
2022-12-08T17:29:06.840Z,1.55
2022-12-08T17:31:36.848Z,1.56
2022-12-08T17:34:10.408Z,1.57
2022-12-08T17:36:40.207Z,1.57
2022-12-08T17:39:13.432Z,1.60
2022-12-08T17:41:46.380Z,1.56
2022-12-08T17:44:17.028Z,1.56
2022-12-08T17:46:52.111Z,1.54
2022-12-08T17:49:25.315Z,1.60
2022-12-08T17:51:54.999Z,1.63
2022-12-08T17:54:23.605Z,1.62
2022-12-08T17:56:52.332Z,1.67
2022-12-08T17:59:20.773Z,1.69
2022-12-08T18:01:49.220Z,1.72
2022-12-08T18:04:17.502Z,1.75
2022-12-08T18:06:47.434Z,1.86
2022-12-08T18:09:16.417Z,1.88
2022-12-08T18:11:46.287Z,1.92
2022-12-08T18:14:15.454Z,2.02
2022-12-08T18:16:46.266Z,2.02
2022-12-08T18:19:15.516Z,2.05
2022-12-08T18:21:44.456Z,2.08
2022-12-08T18:24:18.978Z,2.11
2022-12-08T18:26:47.612Z,2.12
2022-12-08T18:29:16.213Z,2.15
2022-12-08T18:31:44.835Z,2.21
2022-12-08T18:34:13.290Z,2.10
2022-12-08T18:36:41.655Z,2.03
2022-12-08T18:39:24.154Z,2.02
2022-12-08T18:41:53.178Z,2.06
2022-12-08T18:44:21.723Z,2.05
2022-12-08T18:46:50.127Z,2.08
2022-12-08T18:49:20.155Z,2.07
2022-12-08T18:51:48.947Z,2.08
2022-12-08T18:54:17.852Z,2.11
2022-12-08T18:56:47.845Z,2.15
2022-12-08T18:59:16.380Z,2.15
2022-12-08T19:01:45.101Z,2.14
2022-12-08T19:04:28.531Z,2.13
2022-12-08T19:06:58.122Z,2.11
2022-12-08T19:09:29.084Z,2.03
2022-12-08T19:11:59.022Z,1.99
2022-12-08T19:14:30.448Z,1.99
2022-12-08T19:16:59.411Z,2.00
2022-12-08T19:19:31.827Z,1.98
2022-12-08T19:22:00.103Z,1.87
2022-12-08T19:24:29.209Z,1.83
2022-12-08T19:26:58.994Z,1.78
2022-12-08T19:29:27.207Z,1.73
2022-12-08T19:31:55.864Z,1.67
2022-12-08T19:34:24.493Z,1.63
2022-12-08T19:36:53.016Z,1.56
2022-12-08T19:39:41.083Z,1.57
2022-12-08T19:42:34.228Z,1.50
2022-12-08T19:45:06.993Z,1.49
2022-12-08T19:47:35.344Z,1.46
2022-12-08T19:50:20.825Z,1.38
2022-12-08T19:52:49.233Z,1.35
2022-12-08T19:55:17.836Z,1.33
2022-12-08T19:57:47.735Z,1.31
2022-12-08T20:00:17.900Z,1.29
2022-12-08T20:02:46.954Z,1.32
2022-12-08T20:05:15.570Z,1.35
2022-12-08T20:07:44.398Z,1.31
2022-12-08T20:10:17.859Z,1.31
2022-12-08T20:12:47.649Z,1.24
2022-12-08T20:15:16.106Z,1.22
2022-12-08T20:17:44.830Z,1.19
2022-12-08T20:20:15.059Z,1.22
2022-12-08T20:22:45.263Z,1.25
2022-12-08T20:25:13.794Z,1.35
2022-12-08T20:27:42.827Z,1.42
2022-12-08T20:30:17.032Z,1.45
2022-12-08T20:32:46.176Z,1.54
2022-12-08T20:35:15.473Z,1.62
2022-12-08T20:37:43.981Z,1.62
2022-12-08T20:40:12.953Z,1.58
2022-12-08T20:42:41.437Z,1.68
2022-12-08T20:45:10.686Z,1.60
2022-12-08T20:47:40.493Z,1.56
2022-12-08T20:50:10.412Z,1.52
2022-12-08T20:52:39.295Z,1.54
2022-12-08T20:55:09.026Z,1.50
2022-12-08T20:57:37.661Z,1.46
2022-12-08T21:00:08.879Z,1.50
2022-12-08T21:02:45.090Z,1.54
2022-12-08T21:05:17.810Z,1.54
2022-12-08T21:07:46.430Z,1.49
2022-12-08T21:10:15.265Z,1.49
2022-12-08T21:12:43.632Z,1.52
2022-12-08T21:15:13.378Z,1.54
2022-12-08T21:17:42.259Z,1.57
2022-12-08T21:20:11.820Z,1.63
2022-12-08T21:22:42.303Z,1.69
2022-12-08T21:25:10.993Z,1.71
2022-12-08T21:27:40.033Z,1.80
2022-12-08T21:30:11.241Z,1.86
2022-12-08T21:32:40.847Z,1.79
2022-12-08T21:35:10.859Z,1.80
2022-12-08T21:37:39.314Z,1.80
2022-12-08T21:40:12.925Z,1.78
2022-12-08T21:42:47.306Z,1.83
2022-12-08T21:45:17.187Z,1.73
2022-12-08T21:47:46.812Z,1.78
2022-12-08T21:50:16.231Z,1.75
2022-12-08T21:52:48.606Z,1.72
2022-12-08T21:55:20.451Z,1.73
2022-12-08T21:57:49.227Z,1.75
2022-12-08T22:00:19.285Z,1.76
2022-12-08T22:02:47.829Z,1.83
2022-12-08T22:05:16.173Z,1.85
2022-12-08T22:07:44.623Z,1.82
2022-12-08T22:10:13.135Z,1.81
2022-12-08T22:12:42.915Z,1.79
2022-12-08T22:15:12.377Z,1.75
2022-12-08T22:17:42.258Z,1.55
2022-12-08T22:20:13.699Z,1.29
2022-12-08T22:22:42.267Z,1.12
2022-12-08T22:25:12.747Z,1.04
2022-12-08T22:27:42.763Z,1.01
2022-12-08T22:30:12.333Z,0.94
2022-12-08T22:32:41.883Z,0.90
2022-12-08T22:35:11.345Z,0.95
2022-12-08T22:37:39.599Z,0.95
2022-12-08T22:40:09.278Z,0.94
2022-12-08T22:42:37.999Z,0.91
2022-12-08T22:45:09.498Z,0.81
2022-12-08T22:47:37.872Z,0.83
2022-12-08T22:50:08.069Z,0.80
2022-12-08T22:52:36.630Z,0.74
2022-12-08T22:55:05.809Z,0.72
2022-12-08T22:57:34.101Z,0.67
2022-12-08T23:00:03.528Z,0.69
2022-12-08T23:02:34.806Z,0.71
2022-12-08T23:05:03.370Z,0.75
2022-12-08T23:07:32.499Z,0.75
2022-12-08T23:10:00.894Z,0.65
2022-12-08T23:12:29.691Z,0.62
2022-12-08T23:14:57.931Z,0.61
2022-12-08T23:17:26.636Z,0.49
2022-12-08T23:19:56.359Z,0.34
2022-12-08T23:22:24.621Z,0.17
2022-12-08T23:24:53.098Z,0.08
2022-12-08T23:27:21.512Z,-0.02
2022-12-08T23:29:49.855Z,0.03
2022-12-08T23:32:18.155Z,0.05
2022-12-08T23:34:47.082Z,0.04
2022-12-08T23:37:16.995Z,0.19
2022-12-08T23:39:45.532Z,0.24
2022-12-08T23:42:13.721Z,0.32
2022-12-08T23:44:42.427Z,0.37
2022-12-08T23:47:10.943Z,0.45
2022-12-08T23:49:39.435Z,0.50
2022-12-08T23:52:07.727Z,0.51
2022-12-08T23:54:37.379Z,0.44
2022-12-08T23:57:06.141Z,0.42
2022-12-08T23:59:34.885Z,0.39
